sensor_id;sensor_type;location;lat;lon;timestamp;temperature;humidity
40434;DHT22;26146;51.114;5.654;2022-08-19T00:02:35;19.80;99.90
40434;DHT22;26146;51.114;5.654;2022-08-19T00:06:39;19.70;99.90
40434;DHT22;26146;51.114;5.654;2022-08-19T00:10:40;19.60;99.90
40434;DHT22;26146;51.114;5.654;2022-08-19T00:14:41;19.50;99.90
40434;DHT22;26146;51.114;5.654;2022-08-19T00:18:45;19.40;99.90
40434;DHT22;26146;51.114;5.654;2022-08-19T00:22:46;19.50;99.90
40434;DHT22;26146;51.114;5.654;2022-08-19T00:26:48;19.40;99.90
40434;DHT22;26146;51.114;5.654;2022-08-19T00:30:51;19.40;99.90
40434;DHT22;26146;51.114;5.654;2022-08-19T00:34:53;19.40;99.90
40434;DHT22;26146;51.114;5.654;2022-08-19T00:38:55;19.40;99.90
40434;DHT22;26146;51.114;5.654;2022-08-19T00:42:56;19.30;99.90
40434;DHT22;26146;51.114;5.654;2022-08-19T00:46:58;19.30;99.90
40434;DHT22;26146;51.114;5.654;2022-08-19T00:51:00;19.30;99.90
40434;DHT22;26146;51.114;5.654;2022-08-19T00:55:02;19.10;99.90
40434;DHT22;26146;51.114;5.654;2022-08-19T00:59:04;19.20;99.90
40434;DHT22;26146;51.114;5.654;2022-08-19T01:03:14;19.20;99.90
40434;DHT22;26146;51.114;5.654;2022-08-19T01:07:18;19.30;99.90
40434;DHT22;26146;51.114;5.654;2022-08-19T01:11:20;19.20;99.90
40434;DHT22;26146;51.114;5.654;2022-08-19T01:15:27;19.20;99.90
40434;DHT22;26146;51.114;5.654;2022-08-19T01:19:35;19.10;99.90
40434;DHT22;26146;51.114;5.654;2022-08-19T01:23:37;19.00;99.90
40434;DHT22;26146;51.114;5.654;2022-08-19T01:27:48;18.90;99.90
40434;DHT22;26146;51.114;5.654;2022-08-19T01:31:50;18.80;99.90
40434;DHT22;26146;51.114;5.654;2022-08-19T01:35:53;18.70;99.90
40434;DHT22;26146;51.114;5.654;2022-08-19T01:39:54;18.70;99.90
40434;DHT22;26146;51.114;5.654;2022-08-19T01:43:55;18.70;99.90
40434;DHT22;26146;51.114;5.654;2022-08-19T01:47:57;18.70;99.90
40434;DHT22;26146;51.114;5.654;2022-08-19T01:51:59;18.70;99.90
40434;DHT22;26146;51.114;5.654;2022-08-19T01:56:01;18.70;99.90
40434;DHT22;26146;51.114;5.654;2022-08-19T02:00:05;18.60;99.90
40434;DHT22;26146;51.114;5.654;2022-08-19T02:04:07;18.50;99.90
40434;DHT22;26146;51.114;5.654;2022-08-19T02:08:09;18.60;99.90
40434;DHT22;26146;51.114;5.654;2022-08-19T02:12:10;18.60;99.90
40434;DHT22;26146;51.114;5.654;2022-08-19T02:16:14;18.60;99.90
40434;DHT22;26146;51.114;5.654;2022-08-19T02:20:16;18.50;99.90
40434;DHT22;26146;51.114;5.654;2022-08-19T02:24:17;18.50;99.90
40434;DHT22;26146;51.114;5.654;2022-08-19T02:28:18;18.60;99.90
40434;DHT22;26146;51.114;5.654;2022-08-19T02:32:19;18.70;99.90
40434;DHT22;26146;51.114;5.654;2022-08-19T02:36:20;18.70;99.90
40434;DHT22;26146;51.114;5.654;2022-08-19T02:40:21;18.80;99.90
40434;DHT22;26146;51.114;5.654;2022-08-19T02:44:22;18.60;99.90
40434;DHT22;26146;51.114;5.654;2022-08-19T02:48:24;18.40;99.90
40434;DHT22;26146;51.114;5.654;2022-08-19T02:52:26;18.20;99.90
40434;DHT22;26146;51.114;5.654;2022-08-19T02:56:28;18.10;99.90
40434;DHT22;26146;51.114;5.654;2022-08-19T03:00:28;18.10;99.90
40434;DHT22;26146;51.114;5.654;2022-08-19T03:04:29;18.10;99.90
40434;DHT22;26146;51.114;5.654;2022-08-19T03:08:30;18.10;99.90
40434;DHT22;26146;51.114;5.654;2022-08-19T03:12:34;18.10;99.90
40434;DHT22;26146;51.114;5.654;2022-08-19T03:16:44;18.10;99.90
40434;DHT22;26146;51.114;5.654;2022-08-19T03:20:49;18.00;99.90
40434;DHT22;26146;51.114;5.654;2022-08-19T03:24:50;17.90;99.90
40434;DHT22;26146;51.114;5.654;2022-08-19T03:28:52;18.00;99.90
40434;DHT22;26146;51.114;5.654;2022-08-19T03:32:52;18.00;99.90
40434;DHT22;26146;51.114;5.654;2022-08-19T03:36:58;18.10;99.90
40434;DHT22;26146;51.114;5.654;2022-08-19T03:41:06;18.00;99.90
40434;DHT22;26146;51.114;5.654;2022-08-19T03:45:08;17.90;99.90
40434;DHT22;26146;51.114;5.654;2022-08-19T03:49:13;18.00;99.90
40434;DHT22;26146;51.114;5.654;2022-08-19T03:53:14;17.90;99.90
40434;DHT22;26146;51.114;5.654;2022-08-19T03:57:15;17.70;99.90
40434;DHT22;26146;51.114;5.654;2022-08-19T04:01:21;17.70;99.90
40434;DHT22;26146;51.114;5.654;2022-08-19T04:05:22;17.70;99.90
40434;DHT22;26146;51.114;5.654;2022-08-19T04:09:24;17.50;99.90
40434;DHT22;26146;51.114;5.654;2022-08-19T04:13:27;17.50;99.90
40434;DHT22;26146;51.114;5.654;2022-08-19T04:17:28;17.60;99.90
40434;DHT22;26146;51.114;5.654;2022-08-19T04:21:29;17.70;99.90
40434;DHT22;26146;51.114;5.654;2022-08-19T04:25:39;17.70;99.90
40434;DHT22;26146;51.114;5.654;2022-08-19T04:29:40;17.80;99.90
40434;DHT22;26146;51.114;5.654;2022-08-19T04:33:44;17.80;99.90
40434;DHT22;26146;51.114;5.654;2022-08-19T04:37:45;17.90;99.90
40434;DHT22;26146;51.114;5.654;2022-08-19T04:41:46;17.90;99.90
40434;DHT22;26146;51.114;5.654;2022-08-19T04:46:11;18.00;99.90
40434;DHT22;26146;51.114;5.654;2022-08-19T04:50:14;17.90;99.90
40434;DHT22;26146;51.114;5.654;2022-08-19T04:54:17;18.00;99.90
40434;DHT22;26146;51.114;5.654;2022-08-19T04:58:18;18.10;99.90
40434;DHT22;26146;51.114;5.654;2022-08-19T05:02:19;18.20;99.90
40434;DHT22;26146;51.114;5.654;2022-08-19T05:06:21;18.10;99.90
40434;DHT22;26146;51.114;5.654;2022-08-19T05:10:25;17.90;99.90
40434;DHT22;26146;51.114;5.654;2022-08-19T05:14:28;17.80;99.90
40434;DHT22;26146;51.114;5.654;2022-08-19T05:18:29;17.80;99.90
40434;DHT22;26146;51.114;5.654;2022-08-19T05:22:49;17.80;99.90
40434;DHT22;26146;51.114;5.654;2022-08-19T05:26:51;17.80;99.90
40434;DHT22;26146;51.114;5.654;2022-08-19T05:30:53;17.80;99.90
40434;DHT22;26146;51.114;5.654;2022-08-19T05:34:56;18.00;99.90
40434;DHT22;26146;51.114;5.654;2022-08-19T05:38:57;18.10;99.90
40434;DHT22;26146;51.114;5.654;2022-08-19T05:42:58;18.40;99.90
40434;DHT22;26146;51.114;5.654;2022-08-19T05:47:02;18.50;99.90
40434;DHT22;26146;51.114;5.654;2022-08-19T05:51:05;18.70;99.90
40434;DHT22;26146;51.114;5.654;2022-08-19T05:55:09;19.00;99.90
40434;DHT22;26146;51.114;5.654;2022-08-19T05:59:13;19.50;99.90
40434;DHT22;26146;51.114;5.654;2022-08-19T06:03:14;19.50;99.90
40434;DHT22;26146;51.114;5.654;2022-08-19T06:07:15;19.80;99.90
40434;DHT22;26146;51.114;5.654;2022-08-19T06:15:22;20.50;99.90
40434;DHT22;26146;51.114;5.654;2022-08-19T06:19:28;20.10;99.90
40434;DHT22;26146;51.114;5.654;2022-08-19T06:23:30;19.90;99.90
40434;DHT22;26146;51.114;5.654;2022-08-19T06:27:31;20.00;99.90
40434;DHT22;26146;51.114;5.654;2022-08-19T06:31:34;20.00;99.90
40434;DHT22;26146;51.114;5.654;2022-08-19T06:35:39;20.10;99.90
40434;DHT22;26146;51.114;5.654;2022-08-19T06:39:43;20.10;99.90
40434;DHT22;26146;51.114;5.654;2022-08-19T06:43:46;20.50;99.90
40434;DHT22;26146;51.114;5.654;2022-08-19T06:47:49;20.30;99.90
40434;DHT22;26146;51.114;5.654;2022-08-19T06:51:50;20.60;99.90
40434;DHT22;26146;51.114;5.654;2022-08-19T06:55:51;20.70;99.90
40434;DHT22;26146;51.114;5.654;2022-08-19T06:59:58;20.70;99.90
40434;DHT22;26146;51.114;5.654;2022-08-19T07:04:03;20.80;99.90
40434;DHT22;26146;51.114;5.654;2022-08-19T07:08:04;21.00;99.90
40434;DHT22;26146;51.114;5.654;2022-08-19T07:12:09;21.10;99.90
40434;DHT22;26146;51.114;5.654;2022-08-19T07:16:14;21.30;99.90
40434;DHT22;26146;51.114;5.654;2022-08-19T07:20:15;21.40;99.90
40434;DHT22;26146;51.114;5.654;2022-08-19T07:24:17;21.50;99.90
40434;DHT22;26146;51.114;5.654;2022-08-19T07:28:18;21.70;99.90
40434;DHT22;26146;51.114;5.654;2022-08-19T07:32:19;22.00;99.90
40434;DHT22;26146;51.114;5.654;2022-08-19T07:36:22;22.10;99.90
40434;DHT22;26146;51.114;5.654;2022-08-19T07:40:23;22.30;99.90
40434;DHT22;26146;51.114;5.654;2022-08-19T07:44:27;22.80;99.90
40434;DHT22;26146;51.114;5.654;2022-08-19T07:48:29;23.30;99.90
40434;DHT22;26146;51.114;5.654;2022-08-19T07:52:30;23.20;99.90
40434;DHT22;26146;51.114;5.654;2022-08-19T07:56:31;23.50;99.90
40434;DHT22;26146;51.114;5.654;2022-08-19T08:00:32;23.30;99.90
40434;DHT22;26146;51.114;5.654;2022-08-19T08:04:33;23.50;99.90
40434;DHT22;26146;51.114;5.654;2022-08-19T08:08:52;23.70;99.90
40434;DHT22;26146;51.114;5.654;2022-08-19T08:13:11;23.30;99.90
40434;DHT22;26146;51.114;5.654;2022-08-19T08:17:14;23.10;99.90
40434;DHT22;26146;51.114;5.654;2022-08-19T08:21:16;23.00;99.90
40434;DHT22;26146;51.114;5.654;2022-08-19T08:25:19;23.10;99.90
40434;DHT22;26146;51.114;5.654;2022-08-19T08:29:21;23.40;99.90
40434;DHT22;26146;51.114;5.654;2022-08-19T08:33:24;23.30;99.90
40434;DHT22;26146;51.114;5.654;2022-08-19T08:37:25;23.40;99.90
40434;DHT22;26146;51.114;5.654;2022-08-19T08:45:36;23.80;99.70
40434;DHT22;26146;51.114;5.654;2022-08-19T08:49:48;23.80;99.70
40434;DHT22;26146;51.114;5.654;2022-08-19T08:53:51;23.50;99.80
40434;DHT22;26146;51.114;5.654;2022-08-19T08:57:59;23.90;99.60
40434;DHT22;26146;51.114;5.654;2022-08-19T09:02:01;24.10;99.10
40434;DHT22;26146;51.114;5.654;2022-08-19T09:06:06;24.40;98.70
40434;DHT22;26146;51.114;5.654;2022-08-19T09:14:53;24.40;98.70
40434;DHT22;26146;51.114;5.654;2022-08-19T09:19:01;24.40;97.80
40434;DHT22;26146;51.114;5.654;2022-08-19T09:23:05;24.60;97.70
40434;DHT22;26146;51.114;5.654;2022-08-19T09:27:06;24.40;97.30
40434;DHT22;26146;51.114;5.654;2022-08-19T09:31:07;24.00;97.50
40434;DHT22;26146;51.114;5.654;2022-08-19T09:35:11;24.00;98.40
40434;DHT22;26146;51.114;5.654;2022-08-19T09:39:13;24.10;98.20
40434;DHT22;26146;51.114;5.654;2022-08-19T09:43:14;24.50;97.80
40434;DHT22;26146;51.114;5.654;2022-08-19T09:47:15;24.50;97.10
40434;DHT22;26146;51.114;5.654;2022-08-19T09:51:24;24.60;97.40
40434;DHT22;26146;51.114;5.654;2022-08-19T09:55:25;24.60;97.70
40434;DHT22;26146;51.114;5.654;2022-08-19T09:59:27;24.90;96.30
40434;DHT22;26146;51.114;5.654;2022-08-19T10:03:30;25.00;96.10
40434;DHT22;26146;51.114;5.654;2022-08-19T10:07:31;25.10;96.00
40434;DHT22;26146;51.114;5.654;2022-08-19T10:11:33;25.30;95.90
40434;DHT22;26146;51.114;5.654;2022-08-19T10:15:34;25.30;95.30
40434;DHT22;26146;51.114;5.654;2022-08-19T10:19:35;25.50;95.30
40434;DHT22;26146;51.114;5.654;2022-08-19T10:23:38;25.80;94.10
40434;DHT22;26146;51.114;5.654;2022-08-19T10:27:39;25.30;94.60
40434;DHT22;26146;51.114;5.654;2022-08-19T10:31:43;25.30;94.00
40434;DHT22;26146;51.114;5.654;2022-08-19T10:35:44;25.40;93.60
40434;DHT22;26146;51.114;5.654;2022-08-19T10:39:47;25.60;93.50
40434;DHT22;26146;51.114;5.654;2022-08-19T10:43:53;25.90;93.30
40434;DHT22;26146;51.114;5.654;2022-08-19T10:47:55;26.10;92.80
40434;DHT22;26146;51.114;5.654;2022-08-19T10:51:56;25.90;91.90
40434;DHT22;26146;51.114;5.654;2022-08-19T10:56:15;25.90;92.50
40434;DHT22;26146;51.114;5.654;2022-08-19T11:00:35;26.30;92.20
40434;DHT22;26146;51.114;5.654;2022-08-19T11:04:37;25.70;92.40
40434;DHT22;26146;51.114;5.654;2022-08-19T11:08:39;25.50;92.70
40434;DHT22;26146;51.114;5.654;2022-08-19T11:12:42;25.80;92.90
40434;DHT22;26146;51.114;5.654;2022-08-19T11:16:46;26.00;92.40
40434;DHT22;26146;51.114;5.654;2022-08-19T11:20:47;26.30;92.10
40434;DHT22;26146;51.114;5.654;2022-08-19T11:24:48;26.30;92.00
40434;DHT22;26146;51.114;5.654;2022-08-19T11:28:49;26.30;91.20
40434;DHT22;26146;51.114;5.654;2022-08-19T11:32:53;26.20;91.80
40434;DHT22;26146;51.114;5.654;2022-08-19T11:36:55;26.00;92.20
40434;DHT22;26146;51.114;5.654;2022-08-19T11:41:02;26.10;92.00
40434;DHT22;26146;51.114;5.654;2022-08-19T11:45:03;26.50;91.70
40434;DHT22;26146;51.114;5.654;2022-08-19T11:49:05;26.90;91.20
40434;DHT22;26146;51.114;5.654;2022-08-19T11:53:09;27.40;90.10
40434;DHT22;26146;51.114;5.654;2022-08-19T11:57:10;27.60;90.30
40434;DHT22;26146;51.114;5.654;2022-08-19T12:01:14;27.60;90.40
40434;DHT22;26146;51.114;5.654;2022-08-19T12:05:16;28.00;89.70
40434;DHT22;26146;51.114;5.654;2022-08-19T12:09:18;27.60;90.30
40434;DHT22;26146;51.114;5.654;2022-08-19T12:13:19;27.60;90.90
40434;DHT22;26146;51.114;5.654;2022-08-19T12:17:20;27.40;90.90
40434;DHT22;26146;51.114;5.654;2022-08-19T12:21:26;27.30;91.10
40434;DHT22;26146;51.114;5.654;2022-08-19T12:25:31;27.40;91.20
40434;DHT22;26146;51.114;5.654;2022-08-19T12:29:35;27.90;90.90
40434;DHT22;26146;51.114;5.654;2022-08-19T12:33:39;28.30;90.30
40434;DHT22;26146;51.114;5.654;2022-08-19T12:37:41;28.40;90.30
40434;DHT22;26146;51.114;5.654;2022-08-19T12:41:48;27.90;90.60
40434;DHT22;26146;51.114;5.654;2022-08-19T12:45:49;27.60;91.30
40434;DHT22;26146;51.114;5.654;2022-08-19T12:49:53;27.70;91.20
40434;DHT22;26146;51.114;5.654;2022-08-19T12:53:55;27.20;91.60
40434;DHT22;26146;51.114;5.654;2022-08-19T12:57:58;27.30;92.00
40434;DHT22;26146;51.114;5.654;2022-08-19T13:02:03;27.50;91.30
40434;DHT22;26146;51.114;5.654;2022-08-19T13:06:11;27.30;92.30
40434;DHT22;26146;51.114;5.654;2022-08-19T13:10:16;27.30;92.00
40434;DHT22;26146;51.114;5.654;2022-08-19T13:14:17;27.20;92.20
40434;DHT22;26146;51.114;5.654;2022-08-19T13:18:19;27.30;92.00
40434;DHT22;26146;51.114;5.654;2022-08-19T13:22:20;27.80;91.40
40434;DHT22;26146;51.114;5.654;2022-08-19T13:26:21;28.10;91.00
40434;DHT22;26146;51.114;5.654;2022-08-19T13:30:23;28.00;91.10
40434;DHT22;26146;51.114;5.654;2022-08-19T13:34:42;27.50;91.90
40434;DHT22;26146;51.114;5.654;2022-08-19T13:38:43;27.60;91.80
40434;DHT22;26146;51.114;5.654;2022-08-19T13:42:48;27.20;92.50
40434;DHT22;26146;51.114;5.654;2022-08-19T13:46:49;27.30;92.40
40434;DHT22;26146;51.114;5.654;2022-08-19T13:50:54;27.80;92.10
40434;DHT22;26146;51.114;5.654;2022-08-19T13:54:55;28.00;92.00
40434;DHT22;26146;51.114;5.654;2022-08-19T13:58:57;27.70;92.20
40434;DHT22;26146;51.114;5.654;2022-08-19T14:03:00;27.60;92.50
40434;DHT22;26146;51.114;5.654;2022-08-19T14:07:04;27.40;92.80
40434;DHT22;26146;51.114;5.654;2022-08-19T14:11:07;27.60;92.40
40434;DHT22;26146;51.114;5.654;2022-08-19T14:15:10;27.80;92.20
40434;DHT22;26146;51.114;5.654;2022-08-19T14:19:12;27.80;92.10
40434;DHT22;26146;51.114;5.654;2022-08-19T14:23:13;27.80;92.10
40434;DHT22;26146;51.114;5.654;2022-08-19T14:27:16;27.50;92.70
40434;DHT22;26146;51.114;5.654;2022-08-19T14:31:22;27.50;92.90
40434;DHT22;26146;51.114;5.654;2022-08-19T14:35:26;27.50;93.00
40434;DHT22;26146;51.114;5.654;2022-08-19T14:39:27;27.70;93.00
40434;DHT22;26146;51.114;5.654;2022-08-19T14:43:30;28.00;92.40
40434;DHT22;26146;51.114;5.654;2022-08-19T14:47:31;28.50;91.90
40434;DHT22;26146;51.114;5.654;2022-08-19T14:51:33;28.30;92.00
40434;DHT22;26146;51.114;5.654;2022-08-19T14:55:34;27.50;92.70
40434;DHT22;26146;51.114;5.654;2022-08-19T14:59:35;27.70;93.00
40434;DHT22;26146;51.114;5.654;2022-08-19T15:03:38;27.50;92.60
40434;DHT22;26146;51.114;5.654;2022-08-19T15:07:40;26.70;93.40
40434;DHT22;26146;51.114;5.654;2022-08-19T15:11:42;26.30;94.10
40434;DHT22;26146;51.114;5.654;2022-08-19T15:15:43;26.20;94.40
40434;DHT22;26146;51.114;5.654;2022-08-19T15:19:47;25.90;95.10
40434;DHT22;26146;51.114;5.654;2022-08-19T15:23:51;26.10;94.70
40434;DHT22;26146;51.114;5.654;2022-08-19T15:27:52;26.20;94.80
40434;DHT22;26146;51.114;5.654;2022-08-19T15:31:54;26.70;94.10
40434;DHT22;26146;51.114;5.654;2022-08-19T15:36:00;27.00;93.50
40434;DHT22;26146;51.114;5.654;2022-08-19T15:40:06;27.00;93.60
40434;DHT22;26146;51.114;5.654;2022-08-19T15:44:12;27.20;93.70
40434;DHT22;26146;51.114;5.654;2022-08-19T15:48:14;27.00;93.50
40434;DHT22;26146;51.114;5.654;2022-08-19T15:52:15;26.90;94.20
40434;DHT22;26146;51.114;5.654;2022-08-19T15:56:19;27.10;94.10
40434;DHT22;26146;51.114;5.654;2022-08-19T16:00:20;27.40;93.60
40434;DHT22;26146;51.114;5.654;2022-08-19T16:04:40;27.60;93.00
40434;DHT22;26146;51.114;5.654;2022-08-19T16:09:03;27.50;93.30
40434;DHT22;26146;51.114;5.654;2022-08-19T16:13:04;27.40;93.30
40434;DHT22;26146;51.114;5.654;2022-08-19T16:17:05;27.30;93.70
40434;DHT22;26146;51.114;5.654;2022-08-19T16:21:12;27.30;93.40
40434;DHT22;26146;51.114;5.654;2022-08-19T16:25:13;27.40;93.20
40434;DHT22;26146;51.114;5.654;2022-08-19T16:29:16;27.50;93.20
40434;DHT22;26146;51.114;5.654;2022-08-19T16:33:17;27.30;93.60
40434;DHT22;26146;51.114;5.654;2022-08-19T16:37:20;27.30;93.30
40434;DHT22;26146;51.114;5.654;2022-08-19T16:41:25;27.10;93.60
40434;DHT22;26146;51.114;5.654;2022-08-19T16:45:28;26.90;94.00
40434;DHT22;26146;51.114;5.654;2022-08-19T16:49:29;27.10;94.20
40434;DHT22;26146;51.114;5.654;2022-08-19T16:53:33;27.20;93.60
40434;DHT22;26146;51.114;5.654;2022-08-19T16:57:34;27.10;93.60
40434;DHT22;26146;51.114;5.654;2022-08-19T17:01:38;27.00;93.70
40434;DHT22;26146;51.114;5.654;2022-08-19T17:05:52;27.00;93.70
40434;DHT22;26146;51.114;5.654;2022-08-19T17:09:54;26.90;94.00
40434;DHT22;26146;51.114;5.654;2022-08-19T17:13:56;26.60;94.10
40434;DHT22;26146;51.114;5.654;2022-08-19T17:17:59;26.50;94.40
40434;DHT22;26146;51.114;5.654;2022-08-19T17:22:00;26.60;94.40
40434;DHT22;26146;51.114;5.654;2022-08-19T17:26:01;26.50;94.60
40434;DHT22;26146;51.114;5.654;2022-08-19T17:30:04;25.80;95.40
40434;DHT22;26146;51.114;5.654;2022-08-19T17:34:09;24.70;99.90
40434;DHT22;26146;51.114;5.654;2022-08-19T17:38:12;23.10;99.90
40434;DHT22;26146;51.114;5.654;2022-08-19T17:42:14;21.90;99.90
40434;DHT22;26146;51.114;5.654;2022-08-19T17:46:15;21.60;99.90
40434;DHT22;26146;51.114;5.654;2022-08-19T17:50:20;21.70;99.90
40434;DHT22;26146;51.114;5.654;2022-08-19T17:54:22;21.60;99.90
40434;DHT22;26146;51.114;5.654;2022-08-19T17:58:22;21.50;99.90
40434;DHT22;26146;51.114;5.654;2022-08-19T18:02:25;21.40;99.90
40434;DHT22;26146;51.114;5.654;2022-08-19T18:06:26;21.50;99.90
40434;DHT22;26146;51.114;5.654;2022-08-19T18:10:31;21.50;99.90
40434;DHT22;26146;51.114;5.654;2022-08-19T18:14:36;21.60;99.90
40434;DHT22;26146;51.114;5.654;2022-08-19T18:18:38;21.90;99.90
40434;DHT22;26146;51.114;5.654;2022-08-19T18:22:42;22.10;99.90
40434;DHT22;26146;51.114;5.654;2022-08-19T18:26:43;22.20;99.90
40434;DHT22;26146;51.114;5.654;2022-08-19T18:30:44;22.20;99.90
40434;DHT22;26146;51.114;5.654;2022-08-19T18:34:45;22.20;99.90
40434;DHT22;26146;51.114;5.654;2022-08-19T18:38:46;22.20;99.90
40434;DHT22;26146;51.114;5.654;2022-08-19T18:43:06;22.10;99.90
40434;DHT22;26146;51.114;5.654;2022-08-19T18:47:10;22.10;99.90
40434;DHT22;26146;51.114;5.654;2022-08-19T18:51:30;22.10;99.90
40434;DHT22;26146;51.114;5.654;2022-08-19T18:55:34;22.10;99.90
40434;DHT22;26146;51.114;5.654;2022-08-19T18:59:35;22.20;99.90
40434;DHT22;26146;51.114;5.654;2022-08-19T19:03:48;22.10;99.90
40434;DHT22;26146;51.114;5.654;2022-08-19T19:07:50;22.00;99.90
40434;DHT22;26146;51.114;5.654;2022-08-19T19:11:55;21.80;99.90
40434;DHT22;26146;51.114;5.654;2022-08-19T19:15:57;21.70;99.90
40434;DHT22;26146;51.114;5.654;2022-08-19T19:20:00;21.60;99.90
40434;DHT22;26146;51.114;5.654;2022-08-19T19:24:01;21.30;99.90
40434;DHT22;26146;51.114;5.654;2022-08-19T19:28:02;21.30;99.90
40434;DHT22;26146;51.114;5.654;2022-08-19T19:32:05;21.30;99.90
40434;DHT22;26146;51.114;5.654;2022-08-19T19:36:07;21.20;99.90
40434;DHT22;26146;51.114;5.654;2022-08-19T19:40:08;21.20;99.90
40434;DHT22;26146;51.114;5.654;2022-08-19T19:44:10;21.10;99.90
40434;DHT22;26146;51.114;5.654;2022-08-19T19:48:11;21.20;99.90
40434;DHT22;26146;51.114;5.654;2022-08-19T19:52:16;21.10;99.90
40434;DHT22;26146;51.114;5.654;2022-08-19T19:56:18;21.00;99.90
40434;DHT22;26146;51.114;5.654;2022-08-19T20:00:20;20.90;99.90
40434;DHT22;26146;51.114;5.654;2022-08-19T20:04:23;20.80;99.90
40434;DHT22;26146;51.114;5.654;2022-08-19T20:08:26;20.80;99.90
40434;DHT22;26146;51.114;5.654;2022-08-19T20:12:47;20.70;99.90
40434;DHT22;26146;51.114;5.654;2022-08-19T20:16:50;20.70;99.90
40434;DHT22;26146;51.114;5.654;2022-08-19T20:20:51;20.80;99.90
40434;DHT22;26146;51.114;5.654;2022-08-19T20:24:52;20.70;99.90
40434;DHT22;26146;51.114;5.654;2022-08-19T20:28:53;20.80;99.90
40434;DHT22;26146;51.114;5.654;2022-08-19T20:32:55;21.00;99.90
40434;DHT22;26146;51.114;5.654;2022-08-19T20:36:56;21.10;99.90
40434;DHT22;26146;51.114;5.654;2022-08-19T20:40:57;21.20;99.90
40434;DHT22;26146;51.114;5.654;2022-08-19T20:44:58;21.20;99.90
40434;DHT22;26146;51.114;5.654;2022-08-19T20:48:59;21.10;99.90
40434;DHT22;26146;51.114;5.654;2022-08-19T20:53:08;21.20;99.90
40434;DHT22;26146;51.114;5.654;2022-08-19T20:57:09;21.30;99.90
40434;DHT22;26146;51.114;5.654;2022-08-19T21:01:10;21.50;99.90
40434;DHT22;26146;51.114;5.654;2022-08-19T21:05:11;21.50;99.90
40434;DHT22;26146;51.114;5.654;2022-08-19T21:09:12;21.50;99.90
40434;DHT22;26146;51.114;5.654;2022-08-19T21:13:14;21.50;99.90
40434;DHT22;26146;51.114;5.654;2022-08-19T21:17:15;21.30;99.90
40434;DHT22;26146;51.114;5.654;2022-08-19T21:21:16;21.10;99.90
40434;DHT22;26146;51.114;5.654;2022-08-19T21:25:20;21.10;99.90
40434;DHT22;26146;51.114;5.654;2022-08-19T21:29:21;21.10;99.90
40434;DHT22;26146;51.114;5.654;2022-08-19T21:33:23;20.90;99.90
40434;DHT22;26146;51.114;5.654;2022-08-19T21:37:24;20.80;99.90
40434;DHT22;26146;51.114;5.654;2022-08-19T21:41:25;20.90;99.90
40434;DHT22;26146;51.114;5.654;2022-08-19T21:45:28;20.80;99.90
40434;DHT22;26146;51.114;5.654;2022-08-19T21:49:30;20.70;99.90
40434;DHT22;26146;51.114;5.654;2022-08-19T21:53:31;20.70;99.90
40434;DHT22;26146;51.114;5.654;2022-08-19T21:57:32;20.80;99.90
40434;DHT22;26146;51.114;5.654;2022-08-19T22:01:33;20.70;99.90
40434;DHT22;26146;51.114;5.654;2022-08-19T22:05:37;20.90;99.90
40434;DHT22;26146;51.114;5.654;2022-08-19T22:09:43;21.10;99.90
40434;DHT22;26146;51.114;5.654;2022-08-19T22:13:44;21.20;99.90
40434;DHT22;26146;51.114;5.654;2022-08-19T22:17:46;21.20;99.90
40434;DHT22;26146;51.114;5.654;2022-08-19T22:21:47;21.30;99.90
40434;DHT22;26146;51.114;5.654;2022-08-19T22:25:48;21.20;99.90
40434;DHT22;26146;51.114;5.654;2022-08-19T22:29:51;21.20;99.90
40434;DHT22;26146;51.114;5.654;2022-08-19T22:33:52;21.10;99.90
40434;DHT22;26146;51.114;5.654;2022-08-19T22:37:53;21.20;99.90
40434;DHT22;26146;51.114;5.654;2022-08-19T22:41:54;21.20;99.90
40434;DHT22;26146;51.114;5.654;2022-08-19T22:45:55;21.30;99.90
40434;DHT22;26146;51.114;5.654;2022-08-19T22:49:57;21.20;99.90
40434;DHT22;26146;51.114;5.654;2022-08-19T22:53:58;21.20;99.90
40434;DHT22;26146;51.114;5.654;2022-08-19T22:57:59;21.10;99.90
40434;DHT22;26146;51.114;5.654;2022-08-19T23:02:00;21.10;99.90
40434;DHT22;26146;51.114;5.654;2022-08-19T23:06:01;21.00;99.90
40434;DHT22;26146;51.114;5.654;2022-08-19T23:10:08;20.90;99.90
40434;DHT22;26146;51.114;5.654;2022-08-19T23:14:10;20.90;99.90
40434;DHT22;26146;51.114;5.654;2022-08-19T23:18:12;21.00;99.90
40434;DHT22;26146;51.114;5.654;2022-08-19T23:22:18;21.00;99.90
40434;DHT22;26146;51.114;5.654;2022-08-19T23:26:20;21.00;99.90
40434;DHT22;26146;51.114;5.654;2022-08-19T23:30:21;21.00;99.90
40434;DHT22;26146;51.114;5.654;2022-08-19T23:34:28;21.10;99.90
40434;DHT22;26146;51.114;5.654;2022-08-19T23:38:31;21.10;99.90
40434;DHT22;26146;51.114;5.654;2022-08-19T23:42:32;21.00;99.90
40434;DHT22;26146;51.114;5.654;2022-08-19T23:46:33;21.00;99.90
40434;DHT22;26146;51.114;5.654;2022-08-19T23:50:40;21.00;99.90
40434;DHT22;26146;51.114;5.654;2022-08-19T23:54:41;20.90;99.90
40434;DHT22;26146;51.114;5.654;2022-08-19T23:58:42;21.00;99.90
